Estación Meteorológica Peña el Pijo (Robertgarden) [ 01/30/23 13:56:14 CET ]

Fecha Hora Presion(HPa) Temp (°C) Humedad % Rocio (°C) Viento ( m/s) Direccion Lluvia 1Hora(mm) Lluvia 24H(mm) LLuvia Total(mm)
2012-Oct-20 01:01:15 1004.600 11.6 84 9.0         178.19
2012-Oct-20 02:01:16 1004.100 11.4 84 8.8         178.19
2012-Oct-20 03:01:47 1003.900 11.3 85 8.8         178.19
2012-Oct-20 04:10:10 1003.100 11.2 86 8.9         178.19
2012-Oct-20 05:07:08 1003.100 10.8 87 8.7         178.19
2012-Oct-20 06:01:17 1002.700 10.4 89 8.6         178.19
2012-Oct-20 07:01:13 1002.900 10.4 91 9.0         178.19
2012-Oct-20 08:01:14 1002.600 10.4 92 9.1         178.19
2012-Oct-20 09:01:12 1002.500 10.4 92 9.1         178.19
2012-Oct-20 10:01:14 1003.400 10.7 93 9.6         178.19
2012-Oct-20 11:01:17 1003.500 11.1 93 10.0         178.19
2012-Oct-20 12:01:17 1003.200 12.3 93 11.2         178.19
2012-Oct-20 13:01:13 1003.100 12.9 91 11.5         178.19
2012-Oct-20 14:01:11 1002.500 13.3 89 11.5         178.19
2012-Oct-20 15:01:15 1002.100 13.3 88 11.3         178.19
2012-Oct-20 16:01:19 1001.600 12.8 89 11.0         178.19
2012-Oct-20 17:01:17 1002.200 12.2 90 10.6         178.19
2012-Oct-20 18:01:12 1002.200 11.9 91 10.5         178.19
2012-Oct-20 19:01:13 1002.600 11.4 91 10.0         178.19
2012-Oct-20 20:01:17 1002.600 10.6 92 9.3         178.19
2012-Oct-20 21:01:21 1003.100 10.1 92 8.8         178.19
2012-Oct-20 22:01:17 1003.200 9.6 92 8.3         178.19
2012-Oct-20 23:01:12 1003.700 9.3 93 8.2         178.19

Temperatura Máxima:13°    Temperatura Mínima:
Presión Máxima:1004.600 Hpa    Presión Mínima:1001.600 Hpa


Volver